Time;durP1;ratioP1;P1;durP2;ratioP2;P2;SDS_P1;SDS_P2;PMS_P1;PMS_P2;Temp;Humidity;BMP_temperature;BMP_pressure;BME280_temperature;BME280_humidity;BME280_pressure;Samples;Min_cycle;Max_cycle;Signal;HPM_P1;HPM_P2
2022/07/24 00:02:00;;;;;;;12.65;9.05;;;27.80;71.90;;;;;;5023450;28;20505;-61
2022/07/24 00:04:25;;;;;;;9.73;8.57;;;27.80;71.90;;;;;;5006567;28;20044;-60
2022/07/24 00:06:51;;;;;;;10.65;9.55;;;27.80;71.90;;;;;;5021916;28;20036;-60
2022/07/24 00:09:16;;;;;;;9.43;8.50;;;27.80;71.90;;;;;;5027667;28;20532;-60
2022/07/24 00:11:42;;;;;;;9.77;8.88;;;27.80;71.90;;;;;;5024841;28;20455;-60
2022/07/24 00:14:07;;;;;;;9.95;8.95;;;27.80;71.90;;;;;;5009076;28;20358;-61
2022/07/24 00:16:33;;;;;;;9.95;8.82;;;27.70;71.80;;;;;;5024204;28;20461;-60
2022/07/24 00:18:58;;;;;;;9.40;8.50;;;27.70;71.90;;;;;;5023947;28;20116;-60
2022/07/24 00:21:24;;;;;;;9.60;8.65;;;27.70;71.90;;;;;;5005513;28;20128;-60
2022/07/24 00:23:50;;;;;;;9.50;8.60;;;27.60;71.80;;;;;;5007714;28;20044;-60
2022/07/24 00:26:15;;;;;;;10.40;8.93;;;27.60;71.90;;;;;;5022997;28;20064;-60
2022/07/24 00:28:41;;;;;;;10.20;9.15;;;27.60;71.80;;;;;;5023447;28;20029;-63
2022/07/24 00:31:06;;;;;;;10.80;8.70;;;27.60;71.80;;;;;;5024314;28;20025;-61
2022/07/24 00:33:32;;;;;;;11.23;8.23;;;27.60;71.90;;;;;;5023742;28;20025;-61
2022/07/24 00:35:57;;;;;;;11.10;8.23;;;27.50;71.80;;;;;;5025295;28;20037;-60
2022/07/24 00:38:23;;;;;;;10.65;8.85;;;27.50;71.90;;;;;;5025620;28;20033;-60
2022/07/24 00:40:48;;;;;;;11.18;9.20;;;27.50;72.00;;;;;;5022400;28;20026;-60
2022/07/24 00:43:16;;;;;;;8.90;8.07;;;27.50;72.00;;;;;;5022773;28;20029;-64
2022/07/24 00:45:41;;;;;;;9.30;8.40;;;27.50;72.00;;;;;;5024590;28;20179;-59
2022/07/24 00:48:07;;;;;;;8.93;8.07;;;27.40;72.00;;;;;;5025854;28;20247;-61
2022/07/24 00:50:32;;;;;;;10.90;8.85;;;27.40;72.70;;;;;;5023184;28;20052;-61
2022/07/24 00:52:58;;;;;;;12.55;9.15;;;27.40;72.00;;;;;;5021858;28;20022;-60
2022/07/24 00:55:23;;;;;;;12.07;10.48;;;27.40;72.00;;;;;;5025995;28;20026;-60
2022/07/24 00:57:49;;;;;;;10.57;9.48;;;27.40;72.00;;;;;;5022187;28;20041;-60
2022/07/24 01:00:15;;;;;;;10.35;9.35;;;27.30;72.00;;;;;;5023145;28;20215;-63
2022/07/24 01:02:41;;;;;;;10.10;9.10;;;27.30;72.00;;;;;;5023002;28;20404;-60
2022/07/24 01:05:10;;;;;;;10.95;8.73;;;27.30;72.00;;;;;;5030747;28;20072;-59
2022/07/24 01:07:36;;;;;;;10.52;9.40;;;27.30;72.00;;;;;;5021172;28;20029;-59
2022/07/24 01:10:02;;;;;;;9.95;8.95;;;27.30;72.00;;;;;;5022771;28;20049;-64
2022/07/24 01:12:27;;;;;;;9.60;8.68;;;27.20;71.90;;;;;;5023800;28;20021;-59
2022/07/24 01:14:53;;;;;;;9.90;8.90;;;27.20;71.90;;;;;;5021936;28;20389;-60
2022/07/24 01:17:19;;;;;;;9.48;8.52;;;27.20;71.90;;;;;;5022309;28;20060;-60
2022/07/24 01:19:45;;;;;;;10.13;9.07;;;27.20;72.00;;;;;;5023997;28;20033;-61
2022/07/24 01:22:10;;;;;;;11.15;9.07;;;27.20;72.00;;;;;;5021795;28;20042;-61
2022/07/24 01:24:36;;;;;;;9.73;8.55;;;27.10;72.00;;;;;;5022498;28;20087;-60
2022/07/24 01:27:02;;;;;;;10.30;9.20;;;27.10;72.10;;;;;;5020923;28;20595;-60
2022/07/24 01:29:27;;;;;;;9.75;8.45;;;27.10;72.10;;;;;;5017653;28;20804;-60
2022/07/24 01:31:52;;;;;;;12.25;8.77;;;27.10;72.00;;;;;;5004594;28;20049;-60
2022/07/24 01:34:18;;;;;;;10.57;9.18;;;27.10;71.90;;;;;;5021273;28;20037;-60
2022/07/24 01:36:44;;;;;;;10.75;9.68;;;27.10;71.80;;;;;;5023746;28;20473;-60
2022/07/24 01:39:10;;;;;;;10.68;9.57;;;27.10;71.80;;;;;;5022273;28;20029;-60
2022/07/24 01:41:35;;;;;;;11.88;9.90;;;27.10;71.80;;;;;;5024742;28;20030;-61
2022/07/24 01:44:01;;;;;;;11.20;10.02;;;27.10;71.90;;;;;;5024083;28;20034;-60
2022/07/24 01:46:26;;;;;;;10.45;9.35;;;27.00;72.40;;;;;;5024854;28;20018;-59
2022/07/24 01:48:52;;;;;;;11.75;9.80;;;27.00;71.80;;;;;;5022604;28;20049;-60
2022/07/24 01:51:18;;;;;;;10.73;9.63;;;27.00;71.80;;;;;;5021175;28;20029;-61
2022/07/24 01:53:43;;;;;;;11.32;10.18;;;27.00;71.80;;;;;;5022597;28;20053;-61
2022/07/24 01:56:08;;;;;;;10.63;9.50;;;26.90;71.80;;;;;;5022502;28;20095;-60
2022/07/24 01:58:34;;;;;;;13.23;10.10;;;26.90;71.90;;;;;;5024132;28;20404;-60
2022/07/24 02:00:59;;;;;;;10.30;9.25;;;26.90;71.90;;;;;;5021649;28;20033;-60
2022/07/24 02:03:25;;;;;;;11.38;9.65;;;26.90;71.90;;;;;;5022143;28;20112;-60
2022/07/24 02:05:51;;;;;;;11.98;9.90;;;26.80;71.80;;;;;;5020550;28;20033;-61
2022/07/24 02:08:16;;;;;;;11.15;10.07;;;26.80;71.90;;;;;;5021147;28;20038;-61
2022/07/24 02:10:42;;;;;;;10.63;9.73;;;26.80;71.90;;;;;;5021125;28;20061;-60
2022/07/24 02:13:07;;;;;;;12.15;10.30;;;26.80;71.90;;;;;;5021721;28;20108;-60
2022/07/24 02:15:33;;;;;;;11.75;9.60;;;26.80;72.00;;;;;;5021036;28;20033;-60
2022/07/24 02:17:59;;;;;;;10.30;9.05;;;26.80;71.90;;;;;;5020649;28;20061;-60
2022/07/24 02:20:25;;;;;;;11.40;9.43;;;26.80;72.00;;;;;;5024713;28;20551;-60
2022/07/24 02:22:51;;;;;;;10.63;9.20;;;26.70;71.90;;;;;;5021792;28;20064;-60
2022/07/24 02:25:16;;;;;;;11.43;9.40;;;26.70;72.00;;;;;;5022590;28;20029;-60
2022/07/24 02:27:42;;;;;;;12.52;10.50;;;26.70;72.00;;;;;;5018614;28;20037;-60
2022/07/24 02:30:16;;;;;;;11.77;10.35;;;26.70;72.00;;;;;;5021376;28;20072;-60
2022/07/24 02:32:41;;;;;;;11.18;9.98;;;26.70;72.00;;;;;;5004788;28;20393;-60
2022/07/24 02:35:07;;;;;;;18.63;9.65;;;26.60;71.90;;;;;;5021336;28;20038;-60
2022/07/24 02:37:39;;;;;;;11.00;9.98;;;26.60;71.90;;;;;;5020544;28;20052;-60
2022/07/24 02:40:06;;;;;;;14.43;9.82;;;26.70;72.00;;;;;;5021184;28;20363;-61
2022/07/24 02:42:32;;;;;;;9.82;8.82;;;26.60;71.90;;;;;;5022175;28;20037;-60
2022/07/24 02:44:57;;;;;;;11.65;8.82;;;26.60;71.80;;;;;;5022763;28;20045;-60
2022/07/24 02:47:23;;;;;;;15.88;9.40;;;26.60;71.90;;;;;;5025904;28;20040;-60
2022/07/24 02:49:48;;;;;;;13.93;8.93;;;26.60;72.00;;;;;;5008593;28;20031;-61
2022/07/24 02:52:14;;;;;;;12.43;9.30;;;26.50;72.60;;;;;;5026444;28;20516;-59
2022/07/24 02:54:39;;;;;;;15.15;10.13;;;26.50;72.10;;;;;;5027351;28;20508;-60
2022/07/24 02:57:05;;;;;;;13.32;9.35;;;26.50;72.10;;;;;;5023672;28;20128;-60
2022/07/24 02:59:31;;;;;;;10.48;9.02;;;26.50;72.10;;;;;;5025522;28;20480;-59
2022/07/24 03:01:56;;;;;;;9.82;8.82;;;26.40;72.00;;;;;;5024780;28;20037;-60
2022/07/24 03:04:23;;;;;;;11.70;8.88;;;26.50;72.10;;;;;;5025695;28;20113;-60
2022/07/24 03:06:48;;;;;;;10.27;9.25;;;26.40;72.10;;;;;;5023773;28;20446;-61
2022/07/24 03:09:14;;;;;;;10.40;8.45;;;26.40;72.20;;;;;;5026061;28;20033;-60
2022/07/24 03:11:39;;;;;;;12.60;8.65;;;26.40;72.10;;;;;;5025068;28;20150;-60
2022/07/24 03:14:05;;;;;;;9.98;8.70;;;26.40;72.20;;;;;;5026166;28;20025;-60
2022/07/24 03:16:30;;;;;;;10.77;8.57;;;26.30;72.20;;;;;;5026919;28;20625;-60
2022/07/24 03:18:56;;;;;;;10.90;8.45;;;26.30;72.30;;;;;;5027406;28;20108;-60
2022/07/24 03:21:21;;;;;;;10.77;8.43;;;26.30;72.40;;;;;;5026899;28;20073;-60
2022/07/24 03:23:47;;;;;;;9.68;8.65;;;26.30;72.40;;;;;;5027762;28;20030;-60
2022/07/24 03:26:12;;;;;;;12.48;8.50;;;26.30;72.40;;;;;;5027279;28;20029;-61
2022/07/24 03:28:38;;;;;;;10.95;8.73;;;26.30;72.50;;;;;;5027764;28;20057;-60
2022/07/24 03:31:03;;;;;;;10.23;8.52;;;26.30;72.60;;;;;;5026890;28;20076;-60
2022/07/24 03:33:29;;;;;;;12.15;8.65;;;26.20;72.50;;;;;;5023331;28;20080;-60
2022/07/24 03:35:55;;;;;;;10.27;8.65;;;26.20;72.40;;;;;;5025954;28;20049;-60
2022/07/24 03:38:20;;;;;;;11.82;9.25;;;26.20;72.50;;;;;;5023886;28;20033;-61
2022/07/24 03:40:46;;;;;;;10.55;9.55;;;26.20;72.50;;;;;;5027518;28;20025;-60
2022/07/24 03:43:11;;;;;;;9.77;8.98;;;26.20;72.50;;;;;;5007460;28;20029;-61
2022/07/24 03:45:37;;;;;;;13.95;9.50;;;26.20;72.60;;;;;;5023861;28;20523;-60
2022/07/24 03:48:03;;;;;;;13.38;9.70;;;26.20;72.60;;;;;;5023114;28;20033;-60
2022/07/24 03:50:28;;;;;;;10.13;9.00;;;26.10;72.50;;;;;;5022920;28;20366;-60
2022/07/24 03:52:54;;;;;;;10.45;9.10;;;26.10;72.60;;;;;;5006827;28;20037;-60
2022/07/24 03:55:20;;;;;;;10.23;8.52;;;26.10;72.60;;;;;;5005647;28;20488;-61
2022/07/24 03:57:45;;;;;;;9.70;8.70;;;26.00;72.60;;;;;;5022307;28;20623;-61
2022/07/24 04:00:12;;;;;;;10.75;8.85;;;26.00;72.70;;;;;;5023854;28;20120;-59
2022/07/24 04:02:38;;;;;;;9.43;8.52;;;26.00;72.70;;;;;;5007803;28;20052;-61
2022/07/24 04:05:08;;;;;;;9.63;8.57;;;26.00;72.70;;;;;;5025510;28;20313;-60
2022/07/24 04:07:34;;;;;;;10.07;9.07;;;26.00;72.70;;;;;;5023304;28;20103;-60
2022/07/24 04:09:59;;;;;;;8.98;8.18;;;25.90;72.70;;;;;;5023003;28;20037;-60
2022/07/24 04:12:25;;;;;;;9.77;8.63;;;26.00;72.80;;;;;;5022843;28;20037;-60
2022/07/24 04:14:51;;;;;;;8.80;8.00;;;25.90;72.80;;;;;;5005741;28;20037;-60
2022/07/24 04:17:16;;;;;;;10.45;8.45;;;25.90;72.90;;;;;;5004781;28;20041;-60
2022/07/24 04:19:42;;;;;;;8.73;7.82;;;25.90;72.90;;;;;;5006689;28;20052;-60
2022/07/24 04:22:07;;;;;;;9.02;8.00;;;25.90;72.90;;;;;;5025047;28;20132;-61
2022/07/24 04:24:33;;;;;;;12.27;8.27;;;25.80;72.90;;;;;;5023939;28;20366;-60
2022/07/24 04:26:58;;;;;;;9.65;8.68;;;25.90;73.00;;;;;;5024424;28;20029;-60
2022/07/24 04:29:24;;;;;;;10.05;9.05;;;25.80;72.90;;;;;;5026274;28;20041;-60
2022/07/24 04:31:49;;;;;;;11.93;7.78;;;25.80;72.90;;;;;;5026121;28;20036;-61
2022/07/24 04:34:15;;;;;;;8.90;8.00;;;25.80;73.00;;;;;;5024136;28;20040;-60
2022/07/24 04:36:40;;;;;;;8.95;7.88;;;25.80;73.10;;;;;;5023059;28;20176;-61
2022/07/24 04:39:06;;;;;;;8.05;7.20;;;25.80;73.10;;;;;;5023842;28;20496;-60
2022/07/24 04:41:32;;;;;;;8.68;7.90;;;25.70;73.10;;;;;;5022741;28;20481;-60
2022/07/24 04:43:57;;;;;;;9.90;8.48;;;25.70;73.10;;;;;;5022932;28;20109;-60
2022/07/24 04:46:23;;;;;;;8.55;7.75;;;25.70;73.10;;;;;;5025309;28;20477;-59
2022/07/24 04:48:48;;;;;;;8.27;7.55;;;25.70;73.10;;;;;;5024359;28;20496;-60
2022/07/24 04:51:14;;;;;;;8.60;7.80;;;25.70;73.10;;;;;;5021561;28;20112;-60
2022/07/24 04:53:39;;;;;;;8.45;7.63;;;25.70;73.10;;;;;;5024343;28;20061;-60
2022/07/24 04:56:05;;;;;;;10.50;7.55;;;25.70;73.10;;;;;;5023548;28;20035;-61
2022/07/24 04:58:31;;;;;;;8.35;7.55;;;25.70;73.10;;;;;;5024409;28;20034;-60
2022/07/24 05:00:56;;;;;;;9.05;7.93;;;25.70;73.10;;;;;;5024013;28;20348;-61
2022/07/24 05:03:22;;;;;;;8.50;7.60;;;25.70;73.20;;;;;;5021896;28;20113;-59
2022/07/24 05:05:47;;;;;;;8.43;7.47;;;25.60;73.30;;;;;;5023616;28;20041;-60
2022/07/24 05:08:13;;;;;;;8.00;7.20;;;25.60;73.30;;;;;;5020893;28;20022;-60
2022/07/24 05:10:38;;;;;;;8.05;7.35;;;25.60;73.40;;;;;;5024600;28;20543;-60
2022/07/24 05:13:04;;;;;;;9.18;7.57;;;25.60;73.60;;;;;;5022638;28;20037;-60
2022/07/24 05:15:29;;;;;;;10.25;7.28;;;25.50;73.60;;;;;;5023069;28;20036;-60
2022/07/24 05:17:55;;;;;;;7.95;7.15;;;25.50;73.60;;;;;;5005349;28;20063;-60
2022/07/24 05:20:22;;;;;;;7.82;7.13;;;25.50;73.60;;;;;;5022279;28;20049;-63
2022/07/24 05:22:48;;;;;;;10.20;7.43;;;25.50;73.70;;;;;;5021361;28;20032;-60
2022/07/24 05:25:13;;;;;;;7.72;7.03;;;25.50;73.70;;;;;;5006730;28;20029;-60
2022/07/24 05:27:39;;;;;;;9.13;6.97;;;25.50;73.80;;;;;;5020762;28;20428;-60
2022/07/24 05:30:05;;;;;;;7.05;6.45;;;25.50;73.90;;;;;;5021952;28;20302;-60
2022/07/24 05:32:30;;;;;;;8.00;7.20;;;25.50;73.80;;;;;;5022888;28;20113;-60
2022/07/24 05:34:57;;;;;;;8.38;7.57;;;25.50;73.70;;;;;;5021586;28;20022;-60
2022/07/24 05:37:22;;;;;;;7.57;6.88;;;25.50;73.70;;;;;;5020401;28;21179;-60
2022/07/24 05:39:48;;;;;;;10.45;6.85;;;25.50;73.80;;;;;;5005430;28;20061;-60
2022/07/24 05:42:13;;;;;;;8.25;7.53;;;25.50;73.90;;;;;;5022620;28;20345;-60
2022/07/24 05:44:39;;;;;;;8.48;7.65;;;25.50;74.00;;;;;;5020904;28;20072;-59
2022/07/24 05:47:04;;;;;;;8.15;7.38;;;25.50;73.90;;;;;;5022774;28;20163;-59
2022/07/24 05:49:30;;;;;;;7.82;7.05;;;25.50;73.80;;;;;;5022940;28;20045;-61
2022/07/24 05:51:55;;;;;;;9.82;7.40;;;25.50;73.80;;;;;;5023680;28;20091;-60
2022/07/24 05:54:21;;;;;;;9.85;6.75;;;25.40;73.70;;;;;;5019193;28;20044;-61
2022/07/24 05:56:46;;;;;;;9.90;7.43;;;25.40;73.90;;;;;;5020756;28;20049;-60
2022/07/24 05:59:12;;;;;;;7.75;6.97;;;25.40;73.90;;;;;;5020605;28;20064;-60
2022/07/24 06:01:37;;;;;;;7.55;6.80;;;25.40;74.00;;;;;;5021889;28;20369;-60
2022/07/24 06:04:03;;;;;;;7.80;7.00;;;25.40;74.00;;;;;;5023429;28;20037;-60
2022/07/24 06:06:29;;;;;;;9.00;7.15;;;25.30;74.00;;;;;;5020999;28;20025;-59
2022/07/24 06:08:54;;;;;;;7.43;6.72;;;25.40;74.10;;;;;;5021194;28;20120;-62
2022/07/24 06:11:20;;;;;;;7.68;6.97;;;25.40;74.00;;;;;;5022095;28;20037;-60
2022/07/24 06:13:45;;;;;;;7.40;6.70;;;25.40;73.90;;;;;;5021909;28;20030;-60
2022/07/24 06:16:11;;;;;;;8.05;7.03;;;25.40;73.90;;;;;;5004137;28;20584;-60
2022/07/24 06:18:36;;;;;;;8.13;7.38;;;25.40;73.90;;;;;;5002770;28;20457;-60
2022/07/24 06:21:02;;;;;;;7.57;6.88;;;25.40;73.90;;;;;;5021278;28;20566;-60
2022/07/24 06:23:28;;;;;;;7.72;7.03;;;25.40;73.90;;;;;;5022828;28;20030;-60
2022/07/24 06:25:53;;;;;;;7.38;6.68;;;25.40;73.80;;;;;;5021057;28;20026;-60
2022/07/24 06:28:19;;;;;;;7.65;6.95;;;25.40;73.80;;;;;;5022134;28;20021;-60
2022/07/24 06:30:45;;;;;;;9.40;6.82;;;25.40;73.80;;;;;;5024632;28;20040;-62
2022/07/24 06:33:10;;;;;;;7.75;6.95;;;25.40;73.80;;;;;;5021121;28;20038;-60
2022/07/24 06:35:36;;;;;;;7.40;6.70;;;25.40;73.70;;;;;;5022461;28;20037;-60
2022/07/24 06:38:01;;;;;;;7.78;6.38;;;25.50;73.80;;;;;;5020010;28;20045;-60
2022/07/24 06:40:27;;;;;;;7.45;6.75;;;25.40;73.70;;;;;;5003923;28;20379;-59
2022/07/24 06:42:53;;;;;;;7.35;6.65;;;25.40;73.80;;;;;;5019876;28;20025;-60
2022/07/24 06:45:18;;;;;;;8.13;7.15;;;25.40;73.70;;;;;;5020709;28;20104;-60
2022/07/24 06:47:44;;;;;;;10.35;6.88;;;25.40;73.80;;;;;;5021073;28;20094;-61
2022/07/24 06:50:10;;;;;;;7.00;6.05;;;25.40;73.90;;;;;;5022386;28;20041;-60
2022/07/24 06:52:36;;;;;;;7.75;6.95;;;25.40;73.80;;;;;;5003998;28;20014;-60
2022/07/24 06:55:01;;;;;;;7.25;6.65;;;25.40;73.90;;;;;;5022218;28;20037;-60
2022/07/24 06:57:27;;;;;;;7.43;6.70;;;25.40;73.80;;;;;;5021741;28;20028;-60
2022/07/24 06:59:53;;;;;;;7.65;6.95;;;25.40;73.90;;;;;;5022190;28;20037;-60
2022/07/24 07:02:19;;;;;;;7.28;6.55;;;25.40;74.20;;;;;;5021900;28;20413;-60
2022/07/24 07:04:44;;;;;;;7.40;6.80;;;25.40;74.30;;;;;;5020704;28;20116;-61
2022/07/24 07:07:10;;;;;;;8.73;7.50;;;25.30;74.20;;;;;;5019762;28;20133;-61
2022/07/24 07:09:35;;;;;;;7.43;6.72;;;25.30;74.20;;;;;;5022594;28;20026;-60
2022/07/24 07:12:02;;;;;;;7.72;7.03;;;25.40;74.30;;;;;;5021490;28;20401;-60
2022/07/24 07:14:28;;;;;;;8.32;7.53;;;25.40;74.30;;;;;;5003249;28;20036;-61
2022/07/24 07:16:53;;;;;;;7.40;6.70;;;25.40;74.50;;;;;;5017545;28;20045;-60
2022/07/24 07:19:19;;;;;;;7.72;6.50;;;25.40;74.40;;;;;;5019101;28;20041;-60
2022/07/24 07:21:44;;;;;;;8.43;7.07;;;25.40;74.50;;;;;;5004286;28;20444;-60
2022/07/24 07:24:10;;;;;;;9.48;7.15;;;25.40;74.50;;;;;;5020421;28;20104;-59
2022/07/24 07:26:35;;;;;;;7.18;6.50;;;25.40;74.60;;;;;;5020332;28;20032;-60
2022/07/24 07:29:01;;;;;;;7.00;6.30;;;25.40;74.60;;;;;;5020078;28;20056;-61
2022/07/24 07:31:27;;;;;;;7.88;7.07;;;25.40;74.70;;;;;;5023012;28;20384;-60
2022/07/24 07:33:53;;;;;;;7.68;6.90;;;25.40;74.70;;;;;;5024791;28;20498;-60
2022/07/24 07:36:18;;;;;;;7.10;6.40;;;25.40;74.80;;;;;;5025306;28;20034;-61
2022/07/24 07:38:44;;;;;;;8.68;7.53;;;25.40;75.00;;;;;;5023684;28;20029;-61
2022/07/24 07:41:10;;;;;;;8.35;7.28;;;25.40;74.80;;;;;;5023966;28;20400;-61
2022/07/24 07:43:35;;;;;;;7.32;6.72;;;25.40;74.50;;;;;;5025314;28;20663;-61
2022/07/24 07:46:01;;;;;;;7.20;6.50;;;25.40;74.40;;;;;;5023765;28;20033;-60
2022/07/24 07:48:28;;;;;;;7.63;7.03;;;25.40;74.40;;;;;;5024499;28;20478;-60
2022/07/24 07:50:53;;;;;;;8.70;7.82;;;25.40;74.40;;;;;;5015548;28;20034;-61
2022/07/24 07:53:19;;;;;;;8.10;7.40;;;25.40;75.00;;;;;;5016965;28;20076;-61
2022/07/24 07:55:48;;;;;;;8.27;7.45;;;25.40;75.10;;;;;;5019933;28;20487;-60
2022/07/24 07:58:14;;;;;;;8.00;7.30;;;25.40;75.10;;;;;;5016322;28;22263;-61
2022/07/24 08:00:39;;;;;;;8.35;7.55;;;25.40;75.60;;;;;;5019335;28;20396;-60
2022/07/24 08:03:05;;;;;;;9.90;8.48;;;25.40;76.10;;;;;;5017916;28;20033;-61
2022/07/24 08:05:30;;;;;;;9.32;8.20;;;25.40;77.40;;;;;;5019953;28;20920;-60
2022/07/24 08:07:56;;;;;;;18.67;8.60;;;25.40;77.80;;;;;;5016687;28;20056;-60
2022/07/24 08:10:22;;;;;;;12.82;8.90;;;25.30;77.80;;;;;;5018767;28;20040;-61
2022/07/24 08:12:47;;;;;;;11.43;9.20;;;25.30;78.50;;;;;;5018469;28;20037;-59
2022/07/24 08:15:13;;;;;;;10.80;9.80;;;25.30;79.10;;;;;;5022141;28;20032;-60
2022/07/24 08:17:38;;;;;;;10.10;9.10;;;25.40;79.30;;;;;;5017652;28;20362;-60
2022/07/24 08:20:04;;;;;;;10.82;9.70;;;25.40;80.50;;;;;;5015943;28;20026;-60
2022/07/24 08:22:30;;;;;;;11.85;10.50;;;25.30;80.80;;;;;;5015876;28;20045;-58
2022/07/24 08:24:55;;;;;;;11.80;10.60;;;25.30;81.30;;;;;;5014838;28;20052;-59
2022/07/24 08:27:21;;;;;;;14.45;9.93;;;25.30;81.70;;;;;;4997828;28;20033;-60
2022/07/24 08:29:47;;;;;;;13.38;10.02;;;25.30;81.90;;;;;;5016817;28;20040;-60
2022/07/24 08:32:12;;;;;;;11.82;10.52;;;25.30;82.30;;;;;;5021674;28;20041;-59
2022/07/24 08:34:38;;;;;;;11.45;10.10;;;25.30;82.40;;;;;;5020600;28;20026;-61
2022/07/24 08:37:03;;;;;;;20.75;11.85;;;25.30;81.90;;;;;;5019699;28;20037;-61
2022/07/24 08:39:29;;;;;;;18.13;10.50;;;25.40;82.20;;;;;;5017055;28;20032;-60
2022/07/24 08:41:54;;;;;;;17.75;11.15;;;25.30;82.00;;;;;;5019668;28;20057;-60
2022/07/24 08:44:20;;;;;;;23.65;11.80;;;25.40;82.30;;;;;;5016081;28;20674;-60
2022/07/24 08:46:45;;;;;;;20.33;11.18;;;25.40;82.40;;;;;;5014469;28;20029;-61
2022/07/24 08:49:12;;;;;;;24.25;12.13;;;25.50;82.70;;;;;;5014645;28;20694;-62
2022/07/24 08:51:39;;;;;;;33.88;14.38;;;25.50;83.00;;;;;;5017101;28;20342;-60
2022/07/24 08:54:05;;;;;;;31.83;13.27;;;25.50;83.70;;;;;;5021302;28;20074;-60
2022/07/24 08:56:33;;;;;;;30.65;14.10;;;25.50;83.50;;;;;;5017017;28;20029;-60
2022/07/24 08:58:59;;;;;;;51.72;14.90;;;25.50;83.70;;;;;;4994065;28;20038;-61
2022/07/24 09:01:24;;;;;;;43.03;14.05;;;25.60;84.00;;;;;;5015879;28;20045;-60
2022/07/24 09:03:50;;;;;;;34.85;13.82;;;25.60;84.70;;;;;;5015625;28;20034;-61
2022/07/24 09:06:15;;;;;;;61.35;18.00;;;25.60;83.60;;;;;;5015782;28;20061;-60
2022/07/24 09:08:42;;;;;;;88.32;18.85;;;25.70;83.60;;;;;;5016332;28;20040;-60
2022/07/24 09:11:09;;;;;;;63.83;16.60;;;25.70;83.80;;;;;;5012414;28;20033;-60
2022/07/24 09:16:23;;;;;;;50.97;15.45;;;25.80;84.40;;;;;;5016685;28;20429;-61
2022/07/24 09:19:07;;;;;;;95.05;20.30;;;25.80;84.30;;;;;;4997574;28;20127;-60
2022/07/24 09:21:34;;;;;;;70.65;16.95;;;25.80;84.40;;;;;;5001851;28;20037;-63
2022/07/24 09:24:03;;;;;;;57.78;15.98;;;25.90;83.90;;;;;;5016319;28;20017;-60
2022/07/24 09:26:47;;;;;;;47.33;15.38;;;25.90;83.50;;;;;;5015555;28;20033;-61
2022/07/24 09:29:13;;;;;;;52.35;15.15;;;25.90;83.20;;;;;;5017185;28;20021;-60
2022/07/24 09:31:56;;;;;;;79.32;17.30;;;25.90;83.10;;;;;;4999464;28;20025;-62
2022/07/24 09:34:23;;;;;;;58.80;16.42;;;25.90;83.20;;;;;;4981413;28;20034;-60
2022/07/24 09:36:56;;;;;;;78.88;18.15;;;26.00;83.50;;;;;;5014356;28;20140;-61
2022/07/24 09:39:26;;;;;;;47.33;15.10;;;26.00;83.30;;;;;;5015814;28;20033;-61
2022/07/24 09:41:53;;;;;;;48.25;14.98;;;26.10;83.10;;;;;;5014457;28;20077;-62
2022/07/24 09:44:19;;;;;;;56.20;15.32;;;26.00;82.70;;;;;;4999131;28;20026;-61
2022/07/24 09:46:48;;;;;;;52.28;15.05;;;26.00;82.80;;;;;;5015323;28;20044;-61
2022/07/24 09:49:23;;;;;;;67.20;16.60;;;26.10;82.70;;;;;;5010249;28;20073;-60
2022/07/24 09:52:12;;;;;;;58.50;15.50;;;26.10;82.70;;;;;;5011025;28;20056;-61
2022/07/24 09:54:40;;;;;;;55.90;14.98;;;26.10;82.70;;;;;;5012352;28;21927;-62
2022/07/24 09:57:19;;;;;;;76.90;16.38;;;26.20;82.20;;;;;;5012693;28;20017;-62
2022/07/24 09:59:49;;;;;;;101.47;20.02;;;26.20;82.10;;;;;;4993054;28;20034;-61
2022/07/24 10:02:15;;;;;;;82.53;17.13;;;26.30;81.90;;;;;;5011795;28;20162;-61
2022/07/24 10:04:42;;;;;;;74.95;17.67;;;26.30;81.70;;;;;;5007451;28;20159;-61
2022/07/24 10:07:12;;;;;;;85.43;16.48;;;26.30;81.40;;;;;;5011357;28;20644;-61
2022/07/24 10:09:41;;;;;;;71.28;17.13;;;26.40;81.20;;;;;;5012174;28;20045;-61
2022/07/24 10:12:10;;;;;;;66.03;16.05;;;26.40;81.00;;;;;;4998723;28;20600;-61
2022/07/24 10:14:36;;;;;;;66.95;16.38;;;26.50;80.80;;;;;;4995831;28;20186;-60
2022/07/24 10:17:06;;;;;;;71.75;15.50;;;26.40;79.90;;;;;;5008200;28;20716;-60
2022/07/24 10:19:52;;;;;;;69.22;15.45;;;26.50;79.70;;;;;;4996615;28;20037;-62
2022/07/24 10:22:18;;;;;;;;;;;26.60;79.50;;;;;;5013042;28;20120;-60
2022/07/24 10:24:52;;;;;;;86.30;16.85;;;26.60;79.20;;;;;;5007906;28;20007;-60
2022/07/24 10:27:39;;;;;;;88.88;16.52;;;26.60;79.00;;;;;;5007669;28;20045;-61
2022/07/24 10:30:07;;;;;;;112.32;19.38;;;26.70;79.00;;;;;;5010256;28;20025;-60
2022/07/24 10:32:33;;;;;;;74.55;17.08;;;26.70;78.80;;;;;;5014115;28;20044;-61
2022/07/24 10:35:18;;;;;;;101.65;18.13;;;26.70;78.50;;;;;;5007623;28;20064;-60
2022/07/24 10:38:07;;;;;;;66.32;16.15;;;26.80;78.40;;;;;;5015981;28;20030;-61
2022/07/24 10:40:48;;;;;;;72.70;15.63;;;26.70;77.90;;;;;;5001743;28;20071;-61
2022/07/24 10:43:15;;;;;;;72.00;16.08;;;26.90;78.00;;;;;;4992512;28;20025;-60
2022/07/24 10:45:55;;;;;;;102.72;19.05;;;26.90;77.60;;;;;;5013833;28;20029;-61
2022/07/24 10:48:25;;;;;;;82.72;17.05;;;27.00;77.50;;;;;;5013849;28;20035;-61
2022/07/24 10:51:07;;;;;;;49.08;14.77;;;27.00;77.20;;;;;;5017057;28;20037;-60
2022/07/24 10:53:39;;;;;;;54.55;14.15;;;27.00;76.90;;;;;;5017239;28;20678;-61
2022/07/24 10:56:41;;;;;;;76.95;16.02;;;27.10;76.90;;;;;;5017405;28;20064;-60
2022/07/24 10:59:11;;;;;;;103.30;17.35;;;27.10;76.70;;;;;;5018842;28;20030;-61
2022/07/24 11:01:42;;;;;;;81.72;15.90;;;27.10;76.60;;;;;;5019269;28;20037;-60
2022/07/24 11:04:23;;;;;;;95.68;16.90;;;27.20;76.00;;;;;;5018915;28;20025;-61
2022/07/24 11:07:09;;;;;;;85.93;16.95;;;27.30;75.40;;;;;;5014587;28;20041;-59
2022/07/24 11:09:58;;;;;;;67.22;15.82;;;27.30;74.30;;;;;;5015276;28;20101;-59
2022/07/24 11:12:31;;;;;;;53.50;13.30;;;27.40;73.70;;;;;;5021304;28;20099;-60
2022/07/24 11:15:54;;;;;;;51.22;13.05;;;27.50;72.70;;;;;;5005276;28;20029;-60
2022/07/24 11:17:47;;;;;;;84.65;15.80;;;27.50;72.10;;;;;;5017658;28;20038;-60
2022/07/24 11:20:22;;;;;;;74.22;14.30;;;27.60;72.20;;;;;;5017195;28;20021;-61
2022/07/24 11:22:47;;;;;;;77.97;14.07;;;27.70;72.40;;;;;;5017874;28;20037;-60
2022/07/24 11:25:26;;;;;;;68.82;12.98;;;27.80;72.50;;;;;;5019570;28;20045;-61
2022/07/24 11:27:56;;;;;;;64.47;13.65;;;27.90;72.40;;;;;;5019377;28;20055;-60
2022/07/24 11:30:22;;;;;;;50.20;12.82;;;28.00;72.20;;;;;;5019117;28;20029;-61
2022/07/24 11:32:48;;;;;;;66.72;13.68;;;28.10;72.10;;;;;;5020495;28;20501;-60
2022/07/24 11:35:13;;;;;;;80.10;14.65;;;28.20;71.70;;;;;;5018189;28;20060;-61
2022/07/24 11:37:39;;;;;;;63.92;14.65;;;28.20;71.50;;;;;;5015472;28;20582;-59
2022/07/24 11:40:07;;;;;;;71.00;13.50;;;28.30;71.10;;;;;;5016873;28;20477;-60
2022/07/24 11:42:34;;;;;;;65.00;13.35;;;28.40;70.80;;;;;;5015061;28;20038;-61
2022/07/24 11:45:00;;;;;;;53.65;13.55;;;28.40;70.00;;;;;;4998698;28;20025;-61
2022/07/24 11:47:26;;;;;;;71.43;14.00;;;28.50;70.10;;;;;;5015715;28;20026;-59
2022/07/24 11:49:57;;;;;;;54.90;11.98;;;28.50;69.60;;;;;;5018102;28;20026;-60
2022/07/24 11:52:26;;;;;;;43.70;11.55;;;28.50;68.80;;;;;;5020175;28;20022;-62
2022/07/24 11:54:53;;;;;;;60.83;12.93;;;28.60;68.20;;;;;;5018165;28;20481;-59
2022/07/24 11:57:24;;;;;;;52.47;11.50;;;28.70;67.80;;;;;;5002078;28;20424;-61
2022/07/24 11:59:50;;;;;;;42.22;9.77;;;28.80;67.50;;;;;;5016679;28;20079;-61
2022/07/24 12:02:15;;;;;;;49.33;11.48;;;28.90;67.00;;;;;;5002795;28;20048;-60
2022/07/24 12:04:41;;;;;;;39.72;10.68;;;29.00;67.00;;;;;;4999872;28;20040;-61
2022/07/24 12:07:15;;;;;;;47.28;10.85;;;29.10;67.00;;;;;;5015551;28;20079;-61
2022/07/24 12:09:57;;;;;;;47.70;12.35;;;29.10;65.70;;;;;;5014136;28;20021;-61
2022/07/24 12:12:28;;;;;;;62.45;11.88;;;29.20;65.70;;;;;;5016317;28;20037;-61
2022/07/24 12:15:13;;;;;;;85.57;16.95;;;29.30;65.60;;;;;;5012964;28;20037;-61
2022/07/24 12:17:57;;;;;;;;;;;29.40;64.80;;;;;;5014470;28;20038;-60
2022/07/24 12:20:39;;;;;;;49.03;10.90;;;29.50;64.10;;;;;;5015270;28;19924;-61
2022/07/24 12:23:06;;;;;;;27.75;9.18;;;29.50;64.00;;;;;;5017327;28;20048;-61
2022/07/24 12:25:32;;;;;;;40.50;9.65;;;29.50;63.60;;;;;;5017581;28;20053;-61
2022/07/24 12:28:08;;;;;;;20.58;7.82;;;29.50;63.50;;;;;;5011638;28;20649;-60
2022/07/24 12:30:39;;;;;;;20.60;7.70;;;29.70;62.30;;;;;;4998213;28;20158;-60
2022/07/24 12:33:18;;;;;;;16.58;7.15;;;29.60;62.00;;;;;;5010933;28;20060;-61
2022/07/24 12:36:00;;;;;;;17.65;7.57;;;29.60;62.00;;;;;;5015372;28;20072;-61
2022/07/24 12:38:30;;;;;;;17.85;7.22;;;29.70;61.80;;;;;;5014309;28;20286;-60
2022/07/24 12:41:15;;;;;;;28.92;8.40;;;29.80;61.60;;;;;;5018968;28;20381;-60
2022/07/24 12:43:57;;;;;;;24.48;7.97;;;29.80;60.90;;;;;;5001667;28;20116;-61